Time;durP1;ratioP1;P1;durP2;ratioP2;P2;SDS_P1;SDS_P2;PMS_P1;PMS_P2;Temp;Humidity;BMP_temperature;BMP_pressure;BME280_temperature;BME280_humidity;BME280_pressure;Samples;Min_cycle;Max_cycle;Signal;HPM_P1;HPM_P2
2023/03/30 00:00:18;;;;;;;6.25;3.47;;;;;;;9.22;100.00;100487.97;6267109;28;20053;-72
2023/03/30 00:03:21;;;;;;;9.90;4.23;;;;;;;9.21;100.00;100480.19;6275113;28;20049;-72
2023/03/30 00:06:23;;;;;;;8.20;4.20;;;;;;;9.19;100.00;100461.06;6274694;28;20127;-72
2023/03/30 00:09:31;;;;;;;6.80;4.03;;;;;;;9.19;100.00;100445.34;6274706;28;20053;-72
2023/03/30 00:12:32;;;;;;;8.52;4.30;;;;;;;9.17;100.00;100442.78;6275059;28;20090;-72
2023/03/30 00:15:35;;;;;;;6.50;4.28;;;;;;;9.23;100.00;100446.88;6274748;28;20056;-72
2023/03/30 00:18:38;;;;;;;10.35;3.85;;;;;;;9.18;100.00;100430.53;6274790;28;20429;-72
2023/03/30 00:21:40;;;;;;;9.63;4.43;;;;;;;9.20;100.00;100426.06;6274924;28;20051;-72
2023/03/30 00:24:41;;;;;;;9.95;4.65;;;;;;;9.20;100.00;100423.44;6274769;28;20056;-72
2023/03/30 00:27:43;;;;;;;9.57;4.15;;;;;;;9.28;100.00;100418.63;6274244;28;20457;-72
2023/03/30 00:30:46;;;;;;;9.82;4.57;;;;;;;9.27;100.00;100403.84;6274692;28;20044;-72
2023/03/30 00:33:48;;;;;;;13.60;4.50;;;;;;;9.22;100.00;100400.59;6274609;28;20052;-72
2023/03/30 00:36:52;;;;;;;9.15;4.30;;;;;;;9.15;100.00;100389.59;6270902;28;20426;-72
2023/03/30 00:39:53;;;;;;;6.63;3.90;;;;;;;9.16;100.00;100383.41;6268867;28;20135;-72
2023/03/30 00:42:58;;;;;;;9.63;4.10;;;;;;;9.13;100.00;100394.94;6263929;28;20434;-72
2023/03/30 00:46:01;;;;;;;8.10;4.63;;;;;;;9.19;100.00;100401.63;6273914;28;20180;-72
2023/03/30 00:49:05;;;;;;;8.55;3.42;;;;;;;9.15;100.00;100406.16;6277803;28;20064;-72
2023/03/30 00:52:07;;;;;;;7.07;3.65;;;;;;;9.17;100.00;100402.63;6279173;28;20388;-72
2023/03/30 00:55:10;;;;;;;8.55;4.25;;;;;;;9.18;100.00;100410.41;6279224;28;20048;-72
2023/03/30 00:58:13;;;;;;;6.85;4.15;;;;;;;9.14;100.00;100403.63;6278855;28;20353;-72
2023/03/30 01:01:24;;;;;;;8.02;4.72;;;;;;;9.11;100.00;100388.91;6279077;28;20057;-72
2023/03/30 01:04:27;;;;;;;7.05;3.80;;;;;;;9.08;100.00;100382.97;6279333;28;20044;-72
2023/03/30 01:07:28;;;;;;;6.60;4.05;;;;;;;9.08;100.00;100370.75;6278288;28;20045;-72
2023/03/30 01:10:30;;;;;;;5.32;3.65;;;;;;;9.04;100.00;100369.22;6278517;28;20045;-72
2023/03/30 01:13:34;;;;;;;10.23;4.38;;;;;;;9.03;100.00;100371.88;6278994;28;20523;-72
2023/03/30 01:16:43;;;;;;;7.88;4.05;;;;;;;9.01;100.00;100358.03;6278469;28;20048;-72
2023/03/30 01:20:23;;;;;;;6.28;3.08;;;;;;;8.97;100.00;100341.63;6278879;28;20049;-72
2023/03/30 01:23:52;;;;;;;7.70;3.40;;;;;;;8.97;100.00;100330.28;6242918;28;20048;-72
2023/03/30 01:26:58;;;;;;;9.57;4.35;;;;;;;8.93;100.00;100323.53;6278243;28;20444;-72
2023/03/30 01:30:16;;;;;;;8.63;3.63;;;;;;;8.91;100.00;100320.16;6278752;28;20064;-72
2023/03/30 01:34:00;;;;;;;5.47;3.35;;;;;;;8.86;100.00;100315.16;6278423;28;20056;-72
2023/03/30 01:37:27;;;;;;;6.13;3.20;;;;;;;8.85;100.00;100303.78;6201453;28;20054;-72
2023/03/30 01:40:36;;;;;;;7.50;3.47;;;;;;;8.81;100.00;100306.66;6278213;28;20433;-72
2023/03/30 01:43:46;;;;;;;8.52;3.53;;;;;;;8.78;100.00;100301.59;6278173;28;20045;-72
2023/03/30 01:46:51;;;;;;;6.47;3.53;;;;;;;8.76;100.00;100295.59;6277920;28;20045;-72
2023/03/30 01:49:58;;;;;;;6.78;3.42;;;;;;;8.73;100.00;100283.50;6278420;28;20069;-72
2023/03/30 01:53:04;;;;;;;6.57;3.60;;;;;;;8.73;100.00;100287.91;6277849;28;20353;-72
2023/03/30 01:56:13;;;;;;;8.98;3.60;;;;;;;8.69;100.00;100279.34;6277722;28;20056;-72
2023/03/30 01:59:21;;;;;;;6.97;3.83;;;;;;;8.63;100.00;100270.06;6277701;28;20056;-72
2023/03/30 02:02:28;;;;;;;7.50;3.45;;;;;;;8.62;100.00;100272.75;6277662;28;20056;-72
2023/03/30 02:05:31;;;;;;;6.65;3.15;;;;;;;8.67;100.00;100256.78;6277669;28;20445;-72
2023/03/30 02:08:36;;;;;;;7.05;3.88;;;;;;;8.66;100.00;100255.94;6277106;28;20049;-72
2023/03/30 02:11:43;;;;;;;8.60;3.17;;;;;;;8.65;100.00;100241.16;6277769;28;20049;-72
2023/03/30 02:14:48;;;;;;;4.38;2.47;;;;;;;8.69;100.00;100247.09;6277453;28;20052;-72
2023/03/30 02:17:49;;;;;;;6.63;3.42;;;;;;;8.67;100.00;100234.03;6277328;28;20044;-72
2023/03/30 02:20:50;;;;;;;6.82;3.38;;;;;;;8.69;100.00;100236.59;6277235;28;20052;-72
2023/03/30 02:23:56;;;;;;;8.15;3.55;;;;;;;8.76;100.00;100219.59;6277415;28;20060;-72
2023/03/30 02:27:00;;;;;;;4.72;2.83;;;;;;;8.77;100.00;100211.69;6276815;28;20045;-73
2023/03/30 02:30:02;;;;;;;5.38;3.17;;;;;;;8.81;100.00;100201.84;6277278;28;20048;-72
2023/03/30 02:33:05;;;;;;;4.13;2.95;;;;;;;8.81;100.00;100194.00;6276974;28;20059;-72
2023/03/30 02:36:33;;;;;;;4.55;2.83;;;;;;;8.80;100.00;100192.31;6277001;28;20056;-72
2023/03/30 02:39:42;;;;;;;4.93;2.78;;;;;;;8.83;100.00;100193.00;6276601;28;20044;-72
2023/03/30 02:43:02;;;;;;;6.78;2.38;;;;;;;8.87;100.00;100207.63;6276923;28;20052;-72
2023/03/30 02:46:09;;;;;;;;;;;;;;;8.95;100.00;100199.34;6276985;28;20052;-72
2023/03/30 02:49:17;;;;;;;6.22;2.45;;;;;;;9.01;100.00;100209.47;6276725;28;19921;-72
2023/03/30 02:52:32;;;;;;;6.18;2.50;;;;;;;9.05;100.00;100210.16;6273387;28;20045;-72
2023/03/30 02:55:36;;;;;;;8.30;3.20;;;;;;;9.10;100.00;100200.25;6276238;28;20127;-72
2023/03/30 02:58:44;;;;;;;8.23;2.88;;;;;;;9.16;100.00;100207.78;6276386;28;20044;-72
2023/03/30 03:01:52;;;;;;;3.15;2.20;;;;;;;9.18;100.00;100210.34;6274857;28;20045;-72
2023/03/30 03:04:54;;;;;;;6.45;2.60;;;;;;;9.20;100.00;100203.22;6275856;28;20356;-72
2023/03/30 03:07:56;;;;;;;3.90;2.35;;;;;;;9.27;100.00;100200.16;6275010;28;20045;-72
2023/03/30 03:10:57;;;;;;;7.82;2.83;;;;;;;9.29;100.00;100197.44;6274972;28;20045;-72
2023/03/30 03:14:00;;;;;;;5.13;2.70;;;;;;;9.27;100.00;100200.16;6275985;28;20052;-71
2023/03/30 03:17:03;;;;;;;3.97;2.58;;;;;;;9.31;100.00;100192.94;6275279;28;20048;-71
2023/03/30 03:20:09;;;;;;;4.10;2.47;;;;;;;9.34;100.00;100179.66;6274787;28;20139;-72
2023/03/30 03:23:10;;;;;;;6.43;3.55;;;;;;;9.36;100.00;100168.19;6275654;28;20049;-72
2023/03/30 03:26:12;;;;;;;3.42;1.83;;;;;;;9.35;100.00;100176.94;6275347;28;20052;-72
2023/03/30 03:29:15;;;;;;;5.10;2.63;;;;;;;9.38;100.00;100175.94;6275470;28;20334;-72
2023/03/30 03:32:17;;;;;;;4.75;1.90;;;;;;;9.45;100.00;100184.28;6275684;28;20045;-72
2023/03/30 03:35:18;;;;;;;3.47;1.63;;;;;;;9.51;100.00;100183.97;6275324;28;20049;-72
2023/03/30 03:38:20;;;;;;;4.75;1.85;;;;;;;9.52;100.00;100183.00;6275394;28;20326;-72
2023/03/30 03:41:22;;;;;;;4.13;1.85;;;;;;;9.46;100.00;100181.59;6275364;28;20190;-72
2023/03/30 03:44:24;;;;;;;3.05;1.70;;;;;;;9.48;100.00;100182.34;6275089;28;20048;-72
2023/03/30 03:47:26;;;;;;;2.40;1.70;;;;;;;9.53;100.00;100177.66;6274987;28;20041;-72
2023/03/30 03:50:27;;;;;;;6.30;1.85;;;;;;;9.55;100.00;100169.72;6275470;28;20056;-72
2023/03/30 03:53:29;;;;;;;3.22;1.73;;;;;;;9.57;100.00;100165.22;6256052;28;20095;-72
2023/03/30 03:56:30;;;;;;;4.32;1.92;;;;;;;9.62;100.00;100161.38;6265578;28;20449;-72
2023/03/30 03:59:33;;;;;;;2.63;1.75;;;;;;;9.66;100.00;100167.31;6261327;28;20052;-72
2023/03/30 04:02:34;;;;;;;3.85;1.70;;;;;;;9.62;100.00;100158.78;6268213;28;20052;-72
2023/03/30 04:05:36;;;;;;;4.80;1.98;;;;;;;9.60;100.00;100149.31;6268622;28;20449;-71
2023/03/30 04:08:37;;;;;;;6.45;2.13;;;;;;;9.68;100.00;100138.38;6268667;28;20073;-72
2023/03/30 04:11:38;;;;;;;2.30;1.40;;;;;;;9.64;100.00;100156.91;6268121;28;20041;-72
2023/03/30 04:14:41;;;;;;;5.57;2.28;;;;;;;9.94;100.00;100147.28;6267995;28;20096;-72
2023/03/30 04:17:43;;;;;;;4.95;1.63;;;;;;;9.98;100.00;100127.81;6255273;28;20044;-72
2023/03/30 04:20:46;;;;;;;5.95;2.00;;;;;;;10.50;100.00;100124.63;6256678;28;20063;-72
2023/03/30 04:23:48;;;;;;;3.67;1.70;;;;;;;10.67;100.00;100129.63;6264556;28;20044;-72
2023/03/30 04:26:50;;;;;;;2.88;1.50;;;;;;;10.65;100.00;100129.75;6257509;28;20140;-72
2023/03/30 04:29:56;;;;;;;3.78;1.67;;;;;;;10.48;100.00;100124.69;6258998;28;20453;-72
2023/03/30 04:33:03;;;;;;;2.88;1.52;;;;;;;10.38;100.00;100120.97;6261259;28;20044;-72
2023/03/30 04:36:05;;;;;;;5.65;2.03;;;;;;;10.29;100.00;100118.91;6264834;28;20151;-72
2023/03/30 04:39:06;;;;;;;2.72;1.73;;;;;;;10.20;100.00;100106.34;6263762;28;20045;-72
2023/03/30 04:42:12;;;;;;;3.42;2.13;;;;;;;10.13;100.00;100100.63;6261736;28;20484;-72
2023/03/30 04:45:17;;;;;;;5.57;2.35;;;;;;;10.08;100.00;100100.91;6253430;28;20057;-72
2023/03/30 04:48:19;;;;;;;3.97;1.70;;;;;;;10.12;100.00;100112.03;6260811;28;20425;-72
2023/03/30 04:51:21;;;;;;;2.08;1.38;;;;;;;10.12;100.00;100106.78;6266653;28;20048;-72
2023/03/30 04:54:22;;;;;;;3.88;1.75;;;;;;;10.11;100.00;100098.06;6279281;28;20052;-72
2023/03/30 04:57:23;;;;;;;4.75;1.80;;;;;;;10.11;100.00;100111.22;6279112;28;20441;-72
2023/03/30 05:00:26;;;;;;;4.75;1.85;;;;;;;10.12;100.00;100119.94;6278995;28;20049;-72
2023/03/30 05:03:28;;;;;;;3.15;2.22;;;;;;;10.19;100.00;100115.16;6278748;28;20074;-72
2023/03/30 05:06:29;;;;;;;4.03;1.92;;;;;;;10.29;100.00;100108.41;6278702;28;20045;-72
2023/03/30 05:09:31;;;;;;;4.82;2.00;;;;;;;10.32;100.00;100105.59;6278537;28;20041;-72
2023/03/30 05:12:32;;;;;;;6.95;3.58;;;;;;;10.38;100.00;100100.81;6278730;28;20053;-72
2023/03/30 05:15:35;;;;;;;5.97;2.78;;;;;;;10.37;100.00;100111.41;6278753;28;20053;-72
2023/03/30 05:18:37;;;;;;;5.25;2.47;;;;;;;10.40;100.00;100105.94;6278521;28;20118;-72
2023/03/30 05:21:39;;;;;;;4.40;2.13;;;;;;;10.43;100.00;100104.94;6278949;28;20048;-72
2023/03/30 05:24:40;;;;;;;2.80;1.83;;;;;;;10.39;100.00;100099.00;6278659;28;20430;-72
2023/03/30 05:27:41;;;;;;;4.60;2.22;;;;;;;10.38;100.00;100098.19;6278181;28;20037;-72
2023/03/30 05:30:45;;;;;;;3.70;2.20;;;;;;;10.39;100.00;100097.22;6278229;28;20056;-71
2023/03/30 05:33:46;;;;;;;9.48;2.65;;;;;;;10.46;100.00;100102.13;6277112;28;20048;-72
2023/03/30 05:36:48;;;;;;;12.82;2.58;;;;;;;10.50;100.00;100093.09;6277538;28;20369;-72
2023/03/30 05:39:50;;;;;;;7.82;2.70;;;;;;;10.55;100.00;100096.28;6277530;28;20638;-72
2023/03/30 05:42:51;;;;;;;4.80;2.25;;;;;;;10.61;100.00;100095.88;6272526;28;20053;-72
2023/03/30 05:45:54;;;;;;;6.15;2.80;;;;;;;10.69;100.00;100092.78;6272843;28;20452;-72
2023/03/30 05:48:55;;;;;;;6.32;2.85;;;;;;;10.68;100.00;100094.56;6275224;28;20045;-71
2023/03/30 05:51:57;;;;;;;9.10;3.67;;;;;;;10.70;100.00;100095.28;6277255;28;20365;-72
2023/03/30 05:54:58;;;;;;;6.38;3.13;;;;;;;10.67;100.00;100092.84;6277433;28;20048;-72
2023/03/30 05:58:00;;;;;;;12.65;2.97;;;;;;;10.73;100.00;100095.09;6277079;28;20361;-72
2023/03/30 06:01:04;;;;;;;4.15;2.30;;;;;;;10.82;100.00;100094.50;6277360;28;20070;-72
2023/03/30 06:04:07;;;;;;;7.03;2.08;;;;;;;10.96;100.00;100096.25;6277111;28;20132;-73
2023/03/30 06:07:09;;;;;;;5.80;2.25;;;;;;;11.14;100.00;100092.41;6277473;28;20045;-72
2023/03/30 06:10:11;;;;;;;5.68;1.85;;;;;;;11.25;100.00;100081.16;6277096;28;20053;-72
2023/03/30 06:13:13;;;;;;;4.50;2.35;;;;;;;11.28;100.00;100075.69;6277407;28;20365;-72
2023/03/30 06:16:15;;;;;;;6.25;2.03;;;;;;;11.31;100.00;100075.50;6277325;28;20049;-72
2023/03/30 06:19:17;;;;;;;5.38;2.28;;;;;;;11.41;100.00;100070.47;6277433;28;20449;-72
2023/03/30 06:22:18;;;;;;;7.25;1.95;;;;;;;11.38;100.00;100075.91;6277288;28;20062;-73
2023/03/30 06:25:19;;;;;;;6.95;2.33;;;;;;;11.33;100.00;100073.59;6276727;28;20052;-72
2023/03/30 06:28:22;;;;;;;7.65;2.10;;;;;;;11.31;100.00;100085.16;6277006;28;20095;-72
2023/03/30 06:31:24;;;;;;;6.07;2.78;;;;;;;11.30;100.00;100088.72;6276578;28;20050;-72
2023/03/30 06:34:26;;;;;;;4.78;2.47;;;;;;;11.27;100.00;100084.53;6276411;28;20045;-73
2023/03/30 06:37:27;;;;;;;5.18;2.65;;;;;;;11.36;100.00;100080.44;6276054;28;20056;-72
2023/03/30 06:40:29;;;;;;;9.75;3.08;;;;;;;11.32;100.00;100077.19;6273761;28;20057;-72
2023/03/30 06:43:30;;;;;;;5.97;2.92;;;;;;;11.45;100.00;100079.84;6273789;28;20139;-73
2023/03/30 06:46:33;;;;;;;10.05;2.92;;;;;;;11.51;100.00;100078.56;6275012;28;20345;-72
2023/03/30 06:49:35;;;;;;;7.22;2.60;;;;;;;11.60;100.00;100064.78;6276087;28;20429;-72
2023/03/30 06:52:37;;;;;;;6.10;2.58;;;;;;;11.65;100.00;100071.41;6276006;28;20463;-72
2023/03/30 06:55:38;;;;;;;5.97;2.60;;;;;;;11.72;100.00;100063.94;6275744;28;20045;-72
2023/03/30 06:58:40;;;;;;;6.65;2.10;;;;;;;11.67;100.00;100069.53;6276061;28;20045;-73
2023/03/30 07:01:43;;;;;;;4.97;2.45;;;;;;;11.94;100.00;100079.09;6276290;28;20476;-73
2023/03/30 07:04:45;;;;;;;3.67;2.22;;;;;;;11.96;100.00;100085.13;6276148;28;20064;-73
2023/03/30 07:07:47;;;;;;;9.95;3.05;;;;;;;12.14;100.00;100083.00;6275977;28;20122;-73
2023/03/30 07:10:48;;;;;;;4.20;2.20;;;;;;;12.24;100.00;100084.03;6275898;28;20045;-73
2023/03/30 07:13:50;;;;;;;5.85;2.83;;;;;;;12.27;100.00;100082.97;6276432;28;20052;-72
2023/03/30 07:16:52;;;;;;;7.60;2.28;;;;;;;12.36;100.00;100085.78;6275631;28;20053;-72
2023/03/30 07:19:54;;;;;;;2.90;1.73;;;;;;;12.38;100.00;100090.94;6276167;28;20057;-72
2023/03/30 07:22:55;;;;;;;4.47;2.03;;;;;;;12.39;100.00;100089.97;6272799;28;20064;-73
2023/03/30 07:25:57;;;;;;;4.13;2.42;;;;;;;12.45;100.00;100084.28;6265552;28;20052;-72
2023/03/30 07:28:58;;;;;;;4.43;1.63;;;;;;;12.44;100.00;100083.47;6258610;28;20041;-73
2023/03/30 07:32:01;;;;;;;4.50;2.00;;;;;;;12.51;100.00;100083.00;6271198;28;20045;-73
2023/03/30 07:35:03;;;;;;;7.25;2.15;;;;;;;12.43;100.00;100083.53;6269320;28;20049;-72
2023/03/30 07:38:04;;;;;;;4.65;1.45;;;;;;;12.50;100.00;100083.97;6268392;28;20049;-73
2023/03/30 07:41:08;;;;;;;7.07;2.00;;;;;;;12.35;100.00;100078.84;6269110;28;20061;-72
2023/03/30 07:44:09;;;;;;;5.93;1.70;;;;;;;12.33;100.00;100064.91;6256958;28;20067;-73
2023/03/30 07:47:12;;;;;;;2.13;1.50;;;;;;;12.28;100.00;100067.03;6257708;28;20045;-73
2023/03/30 07:50:13;;;;;;;2.95;1.17;;;;;;;12.29;100.00;100062.63;6275183;28;20045;-73
2023/03/30 07:53:14;;;;;;;5.18;2.30;;;;;;;12.28;100.00;100068.84;6264182;28;20060;-73
2023/03/30 07:56:16;;;;;;;2.35;1.13;;;;;;;12.39;100.00;100082.06;6270659;28;20360;-71
2023/03/30 07:59:18;;;;;;;4.18;1.15;;;;;;;12.47;100.00;100082.38;6271158;28;20055;-72
2023/03/30 08:02:20;;;;;;;4.95;1.30;;;;;;;12.61;100.00;100076.09;6263847;28;20048;-72
2023/03/30 08:05:22;;;;;;;4.85;1.67;;;;;;;12.69;100.00;100074.59;6268002;28;20059;-71
2023/03/30 08:08:23;;;;;;;3.33;1.50;;;;;;;12.88;100.00;100067.97;6269285;28;20716;-72
2023/03/30 08:11:24;;;;;;;2.05;1.02;;;;;;;12.92;100.00;100088.72;6274951;28;20060;-73
2023/03/30 08:14:26;;;;;;;2.05;1.40;;;;;;;13.05;100.00;100078.13;6273319;28;20437;-69
2023/03/30 08:17:29;;;;;;;3.88;1.10;;;;;;;13.08;100.00;100074.41;6269011;28;20079;-69
2023/03/30 08:20:31;;;;;;;1.73;1.10;;;;;;;13.18;100.00;100078.06;6274978;28;20128;-72
2023/03/30 08:23:32;;;;;;;1.20;0.90;;;;;;;13.25;100.00;100089.84;6274473;28;20357;-72
2023/03/30 08:26:35;;;;;;;5.47;1.38;;;;;;;13.25;100.00;100092.50;6274639;28;20397;-72
2023/03/30 08:29:36;;;;;;;4.05;1.30;;;;;;;13.13;100.00;100098.66;6274581;28;20041;-73
2023/03/30 08:32:39;;;;;;;5.85;1.02;;;;;;;13.07;100.00;100102.56;6274810;28;20052;-73
2023/03/30 08:35:40;;;;;;;2.65;0.77;;;;;;;12.94;100.00;100104.44;6274501;28;20040;-73
2023/03/30 08:38:45;;;;;;;2.05;1.13;;;;;;;12.92;100.00;100112.47;6274462;28;20048;-72
2023/03/30 08:42:00;;;;;;;5.45;1.23;;;;;;;12.82;100.00;100106.19;6274638;28;20045;-73
2023/03/30 08:45:04;;;;;;;1.40;0.70;;;;;;;12.77;100.00;100120.66;6274568;28;20053;-72
2023/03/30 08:48:15;;;;;;;2.05;0.80;;;;;;;12.67;100.00;100126.59;6274006;28;20372;-72
2023/03/30 08:51:23;;;;;;;3.85;0.82;;;;;;;12.60;100.00;100119.25;6274039;28;20056;-73
2023/03/30 08:54:32;;;;;;;3.63;1.13;;;;;;;12.60;100.00;100119.25;6269418;28;20045;-73
2023/03/30 08:57:50;;;;;;;2.33;0.80;;;;;;;12.67;100.00;100126.59;6271477;28;20516;-73
2023/03/30 09:00:56;;;;;;;3.03;0.73;;;;;;;12.77;100.00;100120.66;6273427;28;20049;-73
2023/03/30 09:04:07;;;;;;;2.20;0.88;;;;;;;12.78;100.00;100131.09;6274500;28;20060;-72
2023/03/30 09:07:14;;;;;;;3.33;1.58;;;;;;;12.79;100.00;100122.22;6273672;28;20041;-72
2023/03/30 09:10:18;;;;;;;4.32;0.88;;;;;;;12.86;100.00;100118.19;6274353;28;20163;-72
2023/03/30 09:13:24;;;;;;;3.58;1.30;;;;;;;12.85;100.00;100113.03;6279002;28;20075;-74
2023/03/30 09:16:33;;;;;;;2.22;1.00;;;;;;;12.86;100.00;100130.56;6278956;28;20057;-73
2023/03/30 09:19:47;;;;;;;2.28;1.08;;;;;;;13.02;100.00;100114.44;6278811;28;20199;-73
2023/03/30 09:22:50;;;;;;;1.73;1.20;;;;;;;13.17;100.00;100127.34;6278780;28;20060;-73
2023/03/30 09:26:01;;;;;;;5.88;1.35;;;;;;;13.20;100.00;100123.63;6277766;28;20103;-73
2023/03/30 09:29:09;;;;;;;2.75;1.10;;;;;;;13.20;100.00;100113.91;6276832;28;20359;-73
2023/03/30 09:32:14;;;;;;;1.45;1.08;;;;;;;13.26;100.00;100123.19;6278319;28;20052;-73
2023/03/30 09:35:20;;;;;;;2.50;1.15;;;;;;;13.29;100.00;100112.41;6270451;28;20045;-73
2023/03/30 09:38:22;;;;;;;6.07;1.60;;;;;;;13.25;100.00;100113.59;6278324;28;20045;-73
2023/03/30 09:41:42;;;;;;;3.53;1.30;;;;;;;13.32;100.00;100106.91;6278390;28;20056;-73
2023/03/30 09:44:47;;;;;;;4.20;1.85;;;;;;;13.35;100.00;100114.63;6278373;28;20426;-73
2023/03/30 09:47:48;;;;;;;3.95;1.45;;;;;;;13.40;100.00;100119.56;6278086;28;20052;-73
2023/03/30 09:50:51;;;;;;;4.22;1.70;;;;;;;13.47;100.00;100118.13;6277862;28;20067;-72
2023/03/30 09:53:59;;;;;;;5.00;0.93;;;;;;;13.47;100.00;100125.19;6278259;28;20052;-74
2023/03/30 09:57:00;;;;;;;3.30;1.40;;;;;;;13.49;100.00;100126.78;6277369;28;20045;-73
2023/03/30 10:00:24;;;;;;;7.95;1.30;;;;;;;13.35;100.00;100130.44;6277074;28;20056;-72
2023/03/30 10:03:26;;;;;;;6.20;1.20;;;;;;;13.28;100.00;100131.00;6270919;28;20372;-71
2023/03/30 10:06:39;;;;;;;2.67;1.17;;;;;;;13.26;100.00;100132.91;6277627;28;20053;-74
2023/03/30 10:09:44;;;;;;;4.65;1.23;;;;;;;13.28;100.00;100131.00;6277269;28;20434;-72
2023/03/30 10:12:49;;;;;;;2.55;1.20;;;;;;;13.33;100.00;100121.78;6277586;28;20059;-72
2023/03/30 10:15:53;;;;;;;1.73;1.20;;;;;;;13.44;100.00;100131.53;6277464;28;20052;-72
2023/03/30 10:18:59;;;;;;;3.13;1.00;;;;;;;13.62;100.00;100121.38;6277409;28;20052;-71
2023/03/30 10:22:03;;;;;;;5.50;1.17;;;;;;;13.59;100.00;100113.72;6277266;28;20041;-72
2023/03/30 10:25:09;;;;;;;2.40;1.20;;;;;;;13.46;100.00;100116.44;6277129;28;20182;-73
2023/03/30 10:28:20;;;;;;;1.98;1.30;;;;;;;13.29;100.00;100104.50;6270609;28;20075;-73
2023/03/30 10:31:23;;;;;;;2.30;0.95;;;;;;;13.23;100.00;100114.69;6276168;28;20119;-72
2023/03/30 10:34:36;;;;;;;2.47;0.93;;;;;;;13.18;100.00;100112.34;6272347;28;20063;-72
2023/03/30 10:37:42;;;;;;;5.65;1.15;;;;;;;13.16;100.00;100111.63;6276895;28;20040;-72
2023/03/30 10:40:45;;;;;;;4.28;1.50;;;;;;;13.12;100.00;100108.34;6268025;28;20052;-74
2023/03/30 10:43:48;;;;;;;6.00;1.25;;;;;;;13.30;100.00;100118.53;6270175;28;21891;-72
2023/03/30 10:46:52;;;;;;;8.52;1.35;;;;;;;13.59;100.00;100114.56;6265357;28;20048;-73
2023/03/30 10:50:03;;;;;;;2.22;1.00;;;;;;;13.80;100.00;100112.06;6262209;28;20048;-72
2023/03/30 10:53:21;;;;;;;3.83;1.00;;;;;;;13.84;100.00;100115.31;6276613;28;20045;-73
2023/03/30 10:56:33;;;;;;;1.80;1.30;;;;;;;13.83;100.00;100124.19;6276399;28;20049;-74
2023/03/30 10:59:52;;;;;;;1.42;1.15;;;;;;;13.88;100.00;100125.50;6270911;28;20096;-74
2023/03/30 11:02:59;;;;;;;1.33;0.93;;;;;;;13.85;100.00;100119.63;6274061;28;20056;-76
2023/03/30 11:06:07;;;;;;;3.17;1.17;;;;;;;14.08;100.00;100120.47;6276044;28;20368;-75
2023/03/30 11:09:15;;;;;;;5.05;1.33;;;;;;;14.09;100.00;100125.66;6275773;28;20329;-76
2023/03/30 11:12:21;;;;;;;2.88;1.23;;;;;;;14.16;100.00;100126.84;6268187;28;20068;-73
2023/03/30 11:15:26;;;;;;;1.60;1.23;;;;;;;14.18;100.00;100132.03;6276015;28;20052;-73
2023/03/30 11:18:35;;;;;;;2.28;1.13;;;;;;;14.04;100.00;100124.34;6273912;28;20361;-73
2023/03/30 11:21:42;;;;;;;3.45;1.50;;;;;;;14.06;100.00;100115.31;6275998;28;20127;-73
2023/03/30 11:24:50;;;;;;;3.30;1.30;;;;;;;13.88;100.00;100124.69;6274040;28;20041;-73
2023/03/30 11:27:57;;;;;;;3.70;1.10;;;;;;;13.81;100.00;100121.69;6272225;28;20056;-73
2023/03/30 11:31:07;;;;;;;3.75;1.10;;;;;;;13.75;100.00;100132.69;6272259;28;20041;-73
2023/03/30 11:34:19;;;;;;;4.90;1.38;;;;;;;13.70;100.00;100137.50;6269535;28;20433;-74
2023/03/30 11:37:28;;;;;;;12.23;1.38;;;;;;;13.58;100.00;100125.22;6267947;28;20057;-74
2023/03/30 11:40:34;;;;;;;;;;;;;;;13.62;100.00;100130.13;6276195;28;20045;-73
2023/03/30 11:43:36;;;;;;;3.70;1.00;;;;;;;13.65;100.00;100135.19;6270153;28;19927;-72
2023/03/30 11:46:42;;;;;;;3.15;1.10;;;;;;;13.77;100.00;100136.06;6275104;28;20323;-73
2023/03/30 11:49:58;;;;;;;11.38;1.67;;;;;;;13.80;100.00;100134.97;6271391;28;20041;-73
2023/03/30 11:53:11;;;;;;;4.97;1.23;;;;;;;13.85;100.00;100135.47;6275400;28;20049;-72
2023/03/30 11:56:22;;;;;;;2.72;1.08;;;;;;;13.91;100.00;100127.09;6274739;28;20495;-75
2023/03/30 11:59:35;;;;;;;3.38;1.02;;;;;;;13.84;100.00;100129.34;6275207;28;20052;-73
2023/03/30 12:02:46;;;;;;;1.02;0.65;;;;;;;13.96;100.00;100149.53;6272550;28;20048;-72
2023/03/30 12:05:54;;;;;;;2.03;0.80;;;;;;;14.03;100.00;100144.63;6275098;28;20051;-73
2023/03/30 12:09:11;;;;;;;3.27;0.70;;;;;;;14.02;100.00;100169.34;6274668;28;20083;-72
2023/03/30 12:12:17;;;;;;;1.88;0.65;;;;;;;13.94;100.00;100156.75;6275139;28;20053;-73
2023/03/30 12:15:30;;;;;;;3.42;1.00;;;;;;;13.88;100.00;100154.56;6274709;28;20049;-73
2023/03/30 12:18:41;;;;;;;2.75;0.75;;;;;;;13.85;100.00;100153.97;6275039;28;20353;-73
2023/03/30 12:21:51;;;;;;;2.90;0.73;;;;;;;13.80;100.00;100143.75;6275046;28;20044;-73
2023/03/30 12:24:58;;;;;;;6.32;1.65;;;;;;;13.93;100.00;100152.41;6274872;28;20579;-72
2023/03/30 12:28:11;;;;;;;1.95;0.70;;;;;;;13.92;100.00;100153.38;6274737;28;20183;-74
2023/03/30 12:31:14;;;;;;;4.13;1.27;;;;;;;14.00;100.00;100152.81;6274596;28;20114;-74
2023/03/30 12:34:16;;;;;;;5.18;1.17;;;;;;;13.96;100.00;100152.19;6266802;28;20049;-74
2023/03/30 12:37:21;;;;;;;4.57;1.08;;;;;;;13.97;100.00;100147.75;6274418;28;20056;-73
2023/03/30 12:40:24;;;;;;;2.05;0.77;;;;;;;13.98;100.00;100144.13;6274640;28;20056;-72
2023/03/30 12:43:40;;;;;;;6.15;1.35;;;;;;;14.04;100.00;100138.41;6276234;28;20080;-73
2023/03/30 12:46:58;;;;;;;4.88;1.85;;;;;;;14.03;100.00;100135.84;6279140;28;20041;-73
2023/03/30 12:50:13;;;;;;;4.15;1.08;;;;;;;14.07;100.00;100139.94;6277337;28;20048;-74
2023/03/30 12:53:31;;;;;;;9.95;1.50;;;;;;;14.10;100.00;100140.56;6279401;28;20442;-73
2023/03/30 12:56:37;;;;;;;12.38;1.63;;;;;;;14.32;100.00;100141.53;6278797;28;20369;-74
2023/03/30 12:59:59;;;;;;;3.65;1.60;;;;;;;14.57;100.00;100137.78;6279050;28;20373;-73
2023/03/30 13:03:22;;;;;;;4.50;0.90;;;;;;;14.60;100.00;100140.22;6276904;28;20048;-72
2023/03/30 13:06:27;;;;;;;7.07;1.10;;;;;;;15.02;100.00;100121.81;6277552;28;20135;-74
2023/03/30 13:09:35;;;;;;;5.30;1.02;;;;;;;15.28;100.00;100124.97;6278543;28;20049;-73
2023/03/30 13:12:40;;;;;;;8.55;0.80;;;;;;;15.21;100.00;100137.88;6279015;28;20052;-73
2023/03/30 13:15:47;;;;;;;8.05;0.90;;;;;;;14.95;100.00;100140.03;6275369;28;20051;-73
2023/03/30 13:18:53;;;;;;;2.20;0.60;;;;;;;14.82;100.00;100148.09;6270595;28;20045;-72
2023/03/30 13:21:57;;;;;;;2.65;0.90;;;;;;;14.57;100.00;100135.16;6269419;28;20460;-71
2023/03/30 13:25:02;;;;;;;3.88;1.20;;;;;;;14.42;100.00;100140.66;6268496;28;20083;-72
2023/03/30 13:28:47;;;;;;;7.05;1.23;;;;;;;14.58;100.00;100137.69;6273379;28;20353;-73
2023/03/30 13:32:18;;;;;;;5.00;1.52;;;;;;;15.17;100.00;100131.13;6275468;28;20163;-74
2023/03/30 13:35:31;;;;;;;3.35;1.10;;;;;;;15.69;100.00;100119.72;6277465;28;20053;-74
2023/03/30 13:38:50;;;;;;;6.82;1.40;;;;;;;15.70;100.00;100113.44;6277731;28;20060;-73
2023/03/30 13:42:04;;;;;;;8.52;1.10;;;;;;;15.89;100.00;100125.13;6277761;28;20045;-74
2023/03/30 13:45:16;;;;;;;3.28;0.88;;;;;;;15.89;100.00;100125.13;6278452;28;20053;-73
2023/03/30 13:48:38;;;;;;;3.85;0.98;;;;;;;15.86;100.00;100133.38;6274146;28;20049;-74
2023/03/30 13:51:41;;;;;;;4.32;1.25;;;;;;;15.55;100.00;100141.22;6276760;28;20041;-75
2023/03/30 13:54:43;;;;;;;4.25;1.08;;;;;;;15.40;100.00;100140.69;6265250;28;20053;-74
2023/03/30 13:57:45;;;;;;;6.40;1.00;;;;;;;15.12;100.00;100139.47;6273454;28;20167;-74
2023/03/30 14:00:50;;;;;;;5.25;1.00;;;;;;;15.08;100.00;100148.66;6269548;28;20037;-74
2023/03/30 14:03:57;;;;;;;3.03;0.98;;;;;;;14.92;100.00;100132.31;6277036;28;20357;-75
2023/03/30 14:07:04;;;;;;;7.15;1.10;;;;;;;14.91;100.00;100134.13;6276971;28;20052;-74
2023/03/30 14:10:08;;;;;;;8.90;1.00;;;;;;;15.16;100.00;100145.34;6273141;28;20132;-74
2023/03/30 14:13:11;;;;;;;1.98;0.85;;;;;;;15.19;100.00;100145.09;6276516;28;20447;-75
2023/03/30 14:16:19;;;;;;;4.15;0.93;;;;;;;15.13;100.00;100135.03;6277229;28;20126;-74